createdAt,value
2019-04-01T00:02:04.172Z,102699.90
2019-04-01T00:04:33.011Z,102708.73
2019-04-01T00:07:01.551Z,102703.09
2019-04-01T00:09:30.017Z,102710.23
2019-04-01T00:11:58.945Z,102715.33
2019-04-01T00:14:27.414Z,102711.55
2019-04-01T00:16:55.879Z,102709.84
2019-04-01T00:19:24.602Z,102707.39
2019-04-01T00:21:53.071Z,102716.78
2019-04-01T00:24:21.950Z,102713.11
2019-04-01T00:26:50.670Z,102709.02
2019-04-01T00:29:19.153Z,102711.92
2019-04-01T00:31:47.607Z,102711.80
2019-04-01T00:34:16.298Z,102716.09
2019-04-01T00:36:44.769Z,102707.12
2019-04-01T00:39:13.228Z,102716.16
2019-04-01T00:41:46.318Z,102714.14
2019-04-01T00:44:14.783Z,102706.41
2019-04-01T00:46:43.256Z,102710.36
2019-04-01T00:49:12.017Z,102718.80
2019-04-01T00:51:40.510Z,102715.41
2019-04-01T00:54:09.000Z,102717.27
2019-04-01T00:56:37.516Z,102711.44
2019-04-01T00:59:05.990Z,102714.62
2019-04-01T01:01:34.475Z,102709.13
2019-04-01T01:04:02.963Z,102712.77
2019-04-01T01:06:31.450Z,102708.98
2019-04-01T01:08:59.883Z,102704.36
2019-04-01T01:11:29.664Z,102707.16
2019-04-01T01:13:58.163Z,102713.06
2019-04-01T01:16:26.654Z,102711.82
2019-04-01T01:18:55.157Z,102705.79
2019-04-01T01:21:23.641Z,102712.91
2019-04-01T01:23:52.175Z,102710.45
2019-04-01T01:26:20.775Z,102709.33
2019-04-01T01:28:49.306Z,102702.81
2019-04-01T01:31:17.772Z,102698.58
2019-04-01T01:33:47.017Z,102696.50
2019-04-01T01:36:15.493Z,102694.41
2019-04-01T01:38:43.992Z,102698.91
2019-04-01T01:41:12.508Z,102698.13
2019-04-01T01:43:40.975Z,102696.98
2019-04-01T01:46:09.782Z,102695.92
2019-04-01T01:48:38.285Z,102698.23
2019-04-01T01:51:06.776Z,102698.39
2019-04-01T01:53:35.363Z,102696.40
2019-04-01T01:56:04.578Z,102694.02
2019-04-01T01:58:33.238Z,102694.02
2019-04-01T02:01:01.720Z,102696.81
2019-04-01T02:03:30.259Z,102699.05
2019-04-01T02:05:58.730Z,102692.09
2019-04-01T02:08:27.230Z,102693.18
2019-04-01T02:10:55.713Z,102691.87
2019-04-01T02:13:24.177Z,102685.84
2019-04-01T02:15:54.039Z,102689.55
2019-04-01T02:18:23.168Z,102692.43
2019-04-01T02:20:51.648Z,102690.95
2019-04-01T02:23:20.131Z,102689.50
2019-04-01T02:25:48.853Z,102687.50
2019-04-01T02:28:17.313Z,102690.67
2019-04-01T02:30:45.776Z,102691.22
2019-04-01T02:33:14.873Z,102695.16
2019-04-01T02:35:43.347Z,102697.78
2019-04-01T02:38:11.803Z,102686.95
2019-04-01T02:40:40.347Z,102689.28
2019-04-01T02:43:08.971Z,102692.06
2019-04-01T02:45:37.440Z,102691.37
2019-04-01T02:48:06.007Z,102697.08
2019-04-01T02:50:34.851Z,102694.06
2019-04-01T02:53:03.319Z,102695.00
2019-04-01T02:55:32.095Z,102695.00
2019-04-01T02:58:00.592Z,102689.89
2019-04-01T03:00:29.379Z,102690.97
2019-04-01T03:02:57.873Z,102690.23
2019-04-01T03:05:26.340Z,102685.27
2019-04-01T03:07:54.789Z,102687.13
2019-04-01T03:10:23.539Z,102688.05
2019-04-01T03:12:52.013Z,102684.50
2019-04-01T03:15:20.482Z,102690.14
2019-04-01T03:17:49.237Z,102692.38
2019-04-01T03:20:17.750Z,102691.45
2019-04-01T03:22:46.216Z,102691.84
2019-04-01T03:25:14.729Z,102688.73
2019-04-01T03:27:43.223Z,102698.70
2019-04-01T03:30:12.215Z,102686.98
2019-04-01T03:32:45.178Z,102697.63
2019-04-01T03:35:11.290Z,102689.91
2019-04-01T03:37:39.875Z,102690.98
2019-04-01T03:40:08.792Z,102697.30
2019-04-01T03:42:37.643Z,102697.45
2019-04-01T03:45:07.063Z,102701.48
2019-04-01T03:47:35.873Z,102692.34
2019-04-01T03:50:05.153Z,102695.98
2019-04-01T03:52:33.618Z,102694.34
2019-04-01T03:55:02.297Z,102693.75
2019-04-01T03:57:30.749Z,102688.64
2019-04-01T04:00:01.573Z,102691.80
2019-04-01T04:02:30.115Z,102698.28
2019-04-01T04:04:58.575Z,102703.08
2019-04-01T04:07:27.042Z,102700.31
2019-04-01T04:09:55.549Z,102693.66
2019-04-01T04:12:24.135Z,102697.98
2019-04-01T04:14:52.635Z,102692.82
2019-04-01T04:17:21.363Z,102698.61
2019-04-01T04:19:50.008Z,102701.23
2019-04-01T04:22:18.643Z,102702.55
2019-04-01T04:24:47.189Z,102698.13
2019-04-01T04:27:15.778Z,102702.45
2019-04-01T04:29:44.295Z,102706.88
2019-04-01T04:32:13.110Z,102705.95
2019-04-01T04:34:41.577Z,102703.77
2019-04-01T04:37:10.049Z,102701.63
2019-04-01T04:39:38.671Z,102707.80
2019-04-01T04:42:07.126Z,102707.80
2019-04-01T04:44:35.765Z,102709.64
2019-04-01T04:47:04.286Z,102714.12
2019-04-01T04:49:32.754Z,102712.27
2019-04-01T04:52:04.465Z,102707.02
2019-04-01T04:54:31.442Z,102707.94
2019-04-01T04:57:00.030Z,102711.49
2019-04-01T04:59:28.576Z,102717.13
2019-04-01T05:01:57.090Z,102717.13
2019-04-01T05:04:25.558Z,102720.14
2019-04-01T05:06:54.060Z,102716.59
2019-04-01T05:09:23.950Z,102719.08
2019-04-01T05:11:52.523Z,102715.53
2019-04-01T05:14:21.008Z,102717.23
2019-04-01T05:16:49.513Z,102712.72
2019-04-01T05:19:17.990Z,102720.06
2019-04-01T05:21:47.405Z,102724.78
2019-04-01T05:24:16.922Z,102731.59
2019-04-01T05:26:45.493Z,102728.76
2019-04-01T05:29:15.785Z,102731.20
2019-04-01T05:31:46.850Z,102731.92
2019-04-01T05:34:17.642Z,102734.41
2019-04-01T05:36:47.140Z,102723.21
2019-04-01T05:39:16.205Z,102730.38
2019-04-01T05:41:45.135Z,102737.56
2019-04-01T05:44:14.190Z,102723.73
2019-04-01T05:46:42.815Z,102731.33
2019-04-01T05:49:11.290Z,102736.66
2019-04-01T05:51:39.831Z,102732.41
2019-04-01T05:54:11.078Z,102736.02
2019-04-01T05:56:39.581Z,102739.66
2019-04-01T05:59:08.059Z,102736.72
2019-04-01T06:01:42.201Z,102737.72
2019-04-01T06:04:10.677Z,102737.41
2019-04-01T06:06:39.138Z,102744.80
2019-04-01T06:09:09.080Z,102746.56
2019-04-01T06:11:37.792Z,102746.09
2019-04-01T06:14:06.525Z,102743.53
2019-04-01T06:16:35.140Z,102745.25
2019-04-01T06:19:05.961Z,102745.70
2019-04-01T06:21:35.468Z,102747.84
2019-04-01T06:24:04.676Z,102754.39
2019-04-01T06:26:33.245Z,102753.80
2019-04-01T06:29:01.716Z,102754.61
2019-04-01T06:31:30.222Z,102751.86
2019-04-01T06:33:58.757Z,102750.39
2019-04-01T06:36:27.396Z,102747.25
2019-04-01T06:38:55.906Z,102749.75
2019-04-01T06:41:24.588Z,102742.61
2019-04-01T06:43:53.072Z,102748.69
2019-04-01T06:46:21.591Z,102748.06
2019-04-01T06:48:50.071Z,102746.11
2019-04-01T06:51:18.555Z,102751.72
2019-04-01T06:53:47.339Z,102750.14
2019-04-01T06:56:15.890Z,102747.34
2019-04-01T06:58:44.347Z,102753.18
2019-04-01T07:01:12.950Z,102753.39
2019-04-01T07:03:41.408Z,102745.66
2019-04-01T07:06:09.966Z,102749.25
2019-04-01T07:08:38.792Z,102744.16
2019-04-01T07:11:07.297Z,102748.28
2019-04-01T07:13:39.707Z,102737.33
2019-04-01T07:16:15.304Z,102742.80
2019-04-01T07:18:36.795Z,102743.31
2019-04-01T07:21:05.622Z,102745.18
2019-04-01T07:23:34.694Z,102744.73
2019-04-01T07:26:03.958Z,102749.03
2019-04-01T07:28:32.606Z,102746.11
2019-04-01T07:31:01.632Z,102747.17
2019-04-01T07:33:30.165Z,102747.45
2019-04-01T07:35:58.653Z,102747.37
2019-04-01T07:38:27.613Z,102748.33
2019-04-01T07:40:59.107Z,102745.21
2019-04-01T07:43:26.770Z,102739.53
2019-04-01T07:45:55.370Z,102741.00
2019-04-01T07:48:23.888Z,102745.04
2019-04-01T07:50:52.456Z,102747.05
2019-04-01T07:53:21.201Z,102736.91
2019-04-01T07:55:49.752Z,102737.55
2019-04-01T07:58:18.230Z,102736.89
2019-04-01T08:00:46.836Z,102744.56
2019-04-01T08:03:15.740Z,102730.23
2019-04-01T08:05:44.207Z,102746.22
2019-04-01T08:08:12.823Z,102742.90
2019-04-01T08:10:41.311Z,102739.91
2019-04-01T08:13:10.183Z,102741.52
2019-04-01T08:15:38.863Z,102737.58
2019-04-01T08:18:07.337Z,102735.30
2019-04-01T08:20:35.871Z,102738.92
2019-04-01T08:23:04.559Z,102740.29
2019-04-01T08:25:39.155Z,102729.77
2019-04-01T08:28:07.761Z,102738.84
2019-04-01T08:30:36.248Z,102742.59
2019-04-01T08:33:05.117Z,102726.43
2019-04-01T08:35:34.083Z,102729.95
2019-04-01T08:38:03.023Z,102733.70
2019-04-01T08:40:31.767Z,102713.91
2019-04-01T08:43:00.556Z,102726.00
2019-04-01T08:45:29.220Z,102722.02
2019-04-01T08:47:57.772Z,102723.57
2019-04-01T08:50:26.499Z,102718.39
2019-04-01T08:52:55.169Z,102718.88
2019-04-01T08:55:23.631Z,102716.35
2019-04-01T08:57:52.181Z,102715.52
2019-04-01T09:00:21.352Z,102713.81
2019-04-01T09:02:49.891Z,102709.13
2019-04-01T09:05:18.391Z,102710.31
2019-04-01T09:07:47.241Z,102706.92
2019-04-01T09:10:16.498Z,102705.35
2019-04-01T09:12:45.291Z,102702.45
2019-04-01T09:15:14.328Z,102697.38
2019-04-01T09:17:42.872Z,102705.23
2019-04-01T09:20:11.998Z,102700.27
2019-04-01T09:22:40.791Z,102686.98
2019-04-01T09:25:09.740Z,102685.16
2019-04-01T09:27:38.190Z,102680.08
2019-04-01T09:30:08.253Z,102689.72
2019-04-01T09:32:36.728Z,102685.38
2019-04-01T09:35:08.672Z,102690.17
2019-04-01T09:37:37.318Z,102673.95
2019-04-01T09:40:07.500Z,102677.23
2019-04-01T09:42:35.994Z,102673.56
2019-04-01T09:45:09.661Z,102676.80
2019-04-01T09:47:38.208Z,102667.06
2019-04-01T09:50:07.872Z,102663.89
2019-04-01T09:52:36.482Z,102676.08
2019-04-01T09:55:06.609Z,102663.59
2019-04-01T09:57:35.440Z,102658.98
2019-04-01T10:00:06.730Z,102659.44
2019-04-01T10:02:35.351Z,102653.92
2019-04-01T10:05:06.063Z,102654.73
2019-04-01T10:07:34.847Z,102645.25
2019-04-01T10:10:04.802Z,102651.75
2019-04-01T10:12:33.296Z,102642.52
2019-04-01T10:15:01.877Z,102640.56
2019-04-01T10:17:30.334Z,102644.89
2019-04-01T10:20:00.870Z,102641.39
2019-04-01T10:22:29.061Z,102641.39
2019-04-01T10:24:57.820Z,102640.27
2019-04-01T10:27:26.487Z,102635.12
2019-04-01T10:29:55.095Z,102641.47
2019-04-01T10:32:23.607Z,102632.12
2019-04-01T10:34:52.089Z,102631.23
2019-04-01T10:37:20.609Z,102624.00
2019-04-01T10:39:49.074Z,102620.32
2019-04-01T10:42:17.587Z,102616.97
2019-04-01T10:44:47.313Z,102613.25
2019-04-01T10:47:15.903Z,102609.60
2019-04-01T10:49:44.467Z,102610.44
2019-04-01T10:52:13.285Z,102601.53
2019-04-01T10:54:41.793Z,102600.28
2019-04-01T10:57:10.426Z,102600.13
2019-04-01T10:59:39.126Z,102587.92
2019-04-01T11:02:08.093Z,102594.95
2019-04-01T11:04:36.623Z,102593.69
2019-04-01T11:07:06.324Z,102584.90
2019-04-01T11:09:38.431Z,102591.52
2019-04-01T11:12:05.123Z,102594.55
2019-04-01T11:14:34.155Z,102581.95
2019-04-01T11:17:08.592Z,102582.61
2019-04-01T11:19:37.143Z,102582.59
2019-04-01T11:22:06.243Z,102581.44
2019-04-01T11:24:34.722Z,102569.81
2019-04-01T11:27:03.300Z,102568.48
2019-04-01T11:29:31.882Z,102572.23
2019-04-01T11:32:00.348Z,102566.77
2019-04-01T11:34:28.884Z,102558.30
2019-04-01T11:36:58.803Z,102555.98
2019-04-01T11:39:27.325Z,102553.24
2019-04-01T11:41:55.994Z,102551.80
2019-04-01T11:44:24.728Z,102544.89
2019-04-01T11:46:53.524Z,102536.26
2019-04-01T11:49:22.466Z,102543.28
2019-04-01T11:51:51.957Z,102529.63
2019-04-01T11:54:20.446Z,102525.09
2019-04-01T11:56:48.996Z,102523.94
2019-04-01T11:59:17.542Z,102522.81
2019-04-01T12:01:47.331Z,102519.98
2019-04-01T12:04:16.140Z,102505.38
2019-04-01T12:06:44.819Z,102512.16
2019-04-01T12:09:13.334Z,102511.22
2019-04-01T12:11:42.118Z,102496.20
2019-04-01T12:14:10.679Z,102497.59
2019-04-01T12:16:39.506Z,102479.95
2019-04-01T12:19:07.983Z,102482.01
2019-04-01T12:21:37.099Z,102479.03
2019-04-01T12:24:06.841Z,102473.37
2019-04-01T12:26:35.333Z,102475.09
2019-04-01T12:29:04.231Z,102467.44
2019-04-01T12:31:32.689Z,102468.13
2019-04-01T12:34:01.225Z,102467.89
2019-04-01T12:36:30.081Z,102464.93
2019-04-01T12:38:58.951Z,102449.20
2019-04-01T12:41:27.405Z,102444.20
2019-04-01T12:43:55.935Z,102439.50
2019-04-01T12:46:24.385Z,102441.55
2019-04-01T12:48:53.071Z,102426.19
2019-04-01T12:51:21.873Z,102425.92
2019-04-01T12:53:50.511Z,102424.62
2019-04-01T12:56:19.112Z,102413.28
2019-04-01T12:58:48.071Z,102410.45
2019-04-01T13:01:16.908Z,102399.56
2019-04-01T13:03:45.390Z,102396.90
2019-04-01T13:06:14.107Z,102384.88
2019-04-01T13:08:42.610Z,102386.57
2019-04-01T13:11:11.182Z,102382.89
2019-04-01T13:13:39.681Z,102376.03
2019-04-01T13:16:09.122Z,102364.36
2019-04-01T13:18:38.271Z,102362.86
2019-04-01T13:21:07.116Z,102353.20
2019-04-01T13:23:36.076Z,102354.17
2019-04-01T13:26:05.663Z,102355.03
2019-04-01T13:28:34.526Z,102357.38
2019-04-01T13:31:02.993Z,102346.64
2019-04-01T13:33:31.483Z,102329.53
2019-04-01T13:35:59.983Z,102323.66
2019-04-01T13:38:28.507Z,102327.16
2019-04-01T13:40:57.005Z,102310.45
2019-04-01T13:43:28.043Z,102310.66
2019-04-01T13:45:56.534Z,102298.47
2019-04-01T13:48:24.997Z,102301.91
2019-04-01T13:50:53.935Z,102304.98
2019-04-01T13:53:22.413Z,102295.59
2019-04-01T13:55:51.379Z,102286.02
2019-04-01T13:58:19.990Z,102282.75
2019-04-01T14:00:49.656Z,102273.01
2019-04-01T14:03:18.230Z,102276.89
2019-04-01T14:05:47.810Z,102277.46
2019-04-01T14:08:25.658Z,102271.78
2019-04-01T14:11:01.218Z,102261.05
2019-04-01T14:13:29.901Z,102252.23
2019-04-01T14:15:58.346Z,102258.83
2019-04-01T14:18:27.162Z,102248.30
2019-04-01T14:20:55.640Z,102248.30
2019-04-01T14:23:24.143Z,102244.20
2019-04-01T14:25:52.651Z,102246.75
2019-04-01T14:28:21.336Z,102244.43
2019-04-01T14:30:49.917Z,102236.39
2019-04-01T14:33:18.505Z,102230.94
2019-04-01T14:35:46.974Z,102224.30
2019-04-01T14:38:15.488Z,102226.66
2019-04-01T14:40:44.072Z,102218.91
2019-04-01T14:43:12.582Z,102209.37
2019-04-01T14:45:41.056Z,102201.33
2019-04-01T14:48:11.756Z,102200.45
2019-04-01T14:50:40.253Z,102186.13
2019-04-01T14:53:09.977Z,102187.48
2019-04-01T14:55:39.362Z,102180.70
2019-04-01T14:58:07.851Z,102174.72
2019-04-01T15:00:36.300Z,102162.87
2019-04-01T15:03:05.059Z,102163.45
2019-04-01T15:05:33.772Z,102160.95
2019-04-01T15:08:02.329Z,102155.55
2019-04-01T15:10:30.849Z,102150.68
2019-04-01T15:13:05.599Z,102153.91
2019-04-01T15:15:29.702Z,102144.46
2019-04-01T15:17:58.389Z,102139.00
2019-04-01T15:20:26.892Z,102145.99
2019-04-01T15:22:55.800Z,102144.36
2019-04-01T15:25:24.480Z,102143.76
2019-04-01T15:27:53.282Z,102132.66
2019-04-01T15:30:21.771Z,102126.26
2019-04-01T15:32:50.348Z,102120.27
2019-04-01T15:35:20.044Z,102113.80
2019-04-01T15:37:48.499Z,102104.64
2019-04-01T15:40:18.261Z,102105.89
2019-04-01T15:42:47.024Z,102099.43
2019-04-01T15:45:15.562Z,102098.80
2019-04-01T15:47:44.142Z,102095.58
2019-04-01T15:50:27.258Z,102094.27
2019-04-01T15:52:43.795Z,102089.89
2019-04-01T15:55:12.469Z,102083.20
2019-04-01T15:57:40.964Z,102084.88
2019-04-01T16:00:10.105Z,102082.05
2019-04-01T16:02:39.160Z,102080.50
2019-04-01T16:05:08.374Z,102076.78
2019-04-01T16:07:36.842Z,102073.22
2019-04-01T16:10:06.672Z,102062.69
2019-04-01T16:12:35.136Z,102062.52
2019-04-01T16:15:04.791Z,102063.23
2019-04-01T16:17:33.958Z,102052.30
2019-04-01T16:20:02.693Z,102050.31
2019-04-01T16:22:31.153Z,102046.36
2019-04-01T16:24:59.973Z,102042.91
2019-04-01T16:27:28.611Z,102048.95
2019-04-01T16:29:57.082Z,102045.86
2019-04-01T16:32:25.594Z,102032.80
2019-04-01T16:34:54.073Z,102043.29
2019-04-01T16:37:22.822Z,102038.64
2019-04-01T16:39:54.353Z,102033.06
2019-04-01T16:42:21.618Z,102031.88
2019-04-01T16:44:50.043Z,102030.55
2019-04-01T16:47:18.698Z,102028.56
2019-04-01T16:49:47.176Z,102030.38
2019-04-01T16:52:16.046Z,102033.65
2019-04-01T16:54:47.805Z,102035.65
2019-04-01T16:57:16.292Z,102028.83
2019-04-01T16:59:44.893Z,102031.66
2019-04-01T17:02:18.116Z,102028.16
2019-04-01T17:04:46.139Z,102036.03
2019-04-01T17:07:14.373Z,102026.83
2019-04-01T17:09:42.989Z,102031.99
2019-04-01T17:12:11.465Z,102032.06
2019-04-01T17:14:39.991Z,102028.18
2019-04-01T17:17:08.830Z,102019.27
2019-04-01T17:19:37.313Z,102020.72
2019-04-01T17:22:07.395Z,102018.75
2019-04-01T17:24:35.956Z,102013.41
2019-04-01T17:27:09.930Z,102016.11
2019-04-01T17:29:38.669Z,102020.46
2019-04-01T17:32:07.491Z,102009.22
2019-04-01T17:34:36.022Z,102008.66
2019-04-01T17:37:04.504Z,102004.75
2019-04-01T17:39:34.622Z,102007.49
2019-04-01T17:42:03.414Z,102015.45
2019-04-01T17:44:32.122Z,102014.70
2019-04-01T17:47:01.172Z,102011.30
2019-04-01T17:49:30.252Z,102013.54
2019-04-01T17:51:59.630Z,102010.47
2019-04-01T17:54:28.324Z,102007.36
2019-04-01T17:56:56.864Z,102008.89
2019-04-01T17:59:25.425Z,102014.80
2019-04-01T18:01:56.899Z,102011.31
2019-04-01T18:04:24.293Z,102006.16
2019-04-01T18:06:52.785Z,102011.36
2019-04-01T18:09:22.228Z,102012.89
2019-04-01T18:11:50.725Z,102012.44
2019-04-01T18:14:19.563Z,102009.67
2019-04-01T18:16:48.148Z,102012.73
2019-04-01T18:19:16.626Z,102007.52
2019-04-01T18:21:45.291Z,102011.76
2019-04-01T18:24:13.787Z,102004.35
2019-04-01T18:26:42.259Z,102010.27
2019-04-01T18:29:10.718Z,102008.17
2019-04-01T18:31:39.287Z,102009.45
2019-04-01T18:34:08.080Z,102011.58
2019-04-01T18:36:36.546Z,102005.03
2019-04-01T18:39:07.912Z,102008.67
2019-04-01T18:41:36.344Z,102010.29
2019-04-01T18:44:05.528Z,102010.52
2019-04-01T18:46:34.150Z,102015.43
2019-04-01T18:49:02.614Z,102007.38
2019-04-01T18:51:31.149Z,102008.34
2019-04-01T18:53:59.757Z,102010.94
2019-04-01T18:56:29.193Z,102012.39
2019-04-01T18:58:58.082Z,102013.53
2019-04-01T19:01:26.589Z,102014.29
2019-04-01T19:03:55.077Z,102007.80
2019-04-01T19:06:23.530Z,102012.70
2019-04-01T19:08:52.255Z,102009.63
2019-04-01T19:11:22.140Z,102012.22
2019-04-01T19:13:50.585Z,102007.53
2019-04-01T19:16:22.847Z,102004.84
2019-04-01T19:18:49.342Z,102009.80
2019-04-01T19:21:17.909Z,102002.45
2019-04-01T19:23:46.814Z,102005.75
2019-04-01T19:26:15.461Z,102004.81
2019-04-01T19:28:43.980Z,102000.28
2019-04-01T19:31:12.507Z,101995.59
2019-04-01T19:33:41.011Z,101997.72
2019-04-01T19:36:09.499Z,101988.81
2019-04-01T19:38:38.092Z,101993.08
2019-04-01T19:41:06.755Z,101988.16
2019-04-01T19:43:35.230Z,101980.97
2019-04-01T19:46:04.238Z,101982.92
2019-04-01T19:48:32.727Z,101987.55
2019-04-01T19:51:01.279Z,101979.50
2019-04-01T19:53:29.922Z,101982.91
2019-04-01T19:55:58.709Z,101978.87
2019-04-01T19:58:27.521Z,101978.30
2019-04-01T20:00:56.041Z,101974.58
2019-04-01T20:03:25.533Z,101975.36
2019-04-01T20:05:54.419Z,101971.50
2019-04-01T20:08:23.159Z,101972.63
2019-04-01T20:10:51.641Z,101969.63
2019-04-01T20:13:20.178Z,101966.42
2019-04-01T20:15:49.271Z,101957.05
2019-04-01T20:18:17.704Z,101961.77
2019-04-01T20:20:46.177Z,101957.59
2019-04-01T20:23:14.860Z,101951.58
2019-04-01T20:25:43.788Z,101945.56
2019-04-01T20:28:13.112Z,101940.52
2019-04-01T20:30:42.680Z,101947.78
2019-04-01T20:33:17.532Z,101948.06
2019-04-01T20:35:41.435Z,101939.55
2019-04-01T20:38:09.935Z,101936.19
2019-04-01T20:40:38.533Z,101940.44
2019-04-01T20:43:07.011Z,101934.58
2019-04-01T20:45:35.680Z,101928.21
2019-04-01T20:48:04.436Z,101931.84
2019-04-01T20:50:33.664Z,101920.64
2019-04-01T20:53:02.188Z,101924.69
2019-04-01T20:55:30.672Z,101920.63
2019-04-01T20:57:59.188Z,101911.13
2019-04-01T21:00:27.983Z,101909.92
2019-04-01T21:02:56.458Z,101907.27
2019-04-01T21:05:25.111Z,101896.30
2019-04-01T21:07:53.630Z,101895.95
2019-04-01T21:10:22.335Z,101889.62
2019-04-01T21:12:50.825Z,101892.55
2019-04-01T21:15:19.519Z,101890.16
2019-04-01T21:17:48.162Z,101883.45
2019-04-01T21:20:16.866Z,101889.02
2019-04-01T21:22:45.763Z,101876.02
2019-04-01T21:25:14.783Z,101882.22
2019-04-01T21:27:44.519Z,101876.71
2019-04-01T21:30:13.719Z,101873.12
2019-04-01T21:32:42.196Z,101882.41
2019-04-01T21:35:11.086Z,101884.50
2019-04-01T21:37:39.598Z,101878.48
2019-04-01T21:40:08.519Z,101867.32
2019-04-01T21:42:37.251Z,101866.11
2019-04-01T21:45:08.672Z,101857.60
2019-04-01T21:47:37.131Z,101856.27
2019-04-01T21:50:07.075Z,101846.98
2019-04-01T21:52:37.152Z,101845.66
2019-04-01T21:55:08.095Z,101843.98
2019-04-01T21:57:36.550Z,101836.66
2019-04-01T22:00:11.274Z,101835.33
2019-04-01T22:02:39.739Z,101831.70
2019-04-01T22:05:10.349Z,101838.06
2019-04-01T22:07:39.353Z,101833.37
2019-04-01T22:10:08.280Z,101833.02
2019-04-01T22:12:36.778Z,101821.71
2019-04-01T22:15:06.657Z,101817.18
2019-04-01T22:17:35.155Z,101812.14
2019-04-01T22:20:05.679Z,101806.48
2019-04-01T22:22:34.251Z,101802.52
2019-04-01T22:25:03.602Z,101798.30
2019-04-01T22:27:32.122Z,101790.27
2019-04-01T22:30:00.678Z,101789.91
2019-04-01T22:32:29.185Z,101788.94
2019-04-01T22:34:57.934Z,101786.98
2019-04-01T22:37:27.716Z,101785.31
2019-04-01T22:39:56.546Z,101784.69
2019-04-01T22:42:25.060Z,101779.73
2019-04-01T22:44:53.604Z,101782.74
2019-04-01T22:47:24.420Z,101779.73
2019-04-01T22:49:52.438Z,101777.44
2019-04-01T22:52:21.048Z,101775.14
2019-04-01T22:54:49.829Z,101769.48
2019-04-01T22:57:18.311Z,101772.48
2019-04-01T22:59:46.861Z,101768.86
2019-04-01T23:02:15.353Z,101773.90
2019-04-01T23:04:43.880Z,101767.00
2019-04-01T23:07:12.421Z,101762.39
2019-04-01T23:09:40.919Z,101754.17
2019-04-01T23:12:09.438Z,101755.22
2019-04-01T23:14:38.443Z,101757.60
2019-04-01T23:17:06.943Z,101756.63
2019-04-01T23:19:35.556Z,101762.28
2019-04-01T23:22:05.307Z,101753.13
2019-04-01T23:24:33.793Z,101751.59
2019-04-01T23:27:02.376Z,101744.97
2019-04-01T23:29:31.018Z,101737.98
2019-04-01T23:31:59.532Z,101743.56
2019-04-01T23:34:28.029Z,101731.91
2019-04-01T23:36:56.585Z,101734.47
2019-04-01T23:39:25.415Z,101723.78
2019-04-01T23:41:53.919Z,101723.09
2019-04-01T23:44:23.448Z,101729.63
2019-04-01T23:46:52.315Z,101721.63
2019-04-01T23:49:20.816Z,101718.91
2019-04-01T23:51:49.501Z,101712.89
2019-04-01T23:54:17.997Z,101706.54
2019-04-01T23:56:46.570Z,101705.84
2019-04-01T23:59:15.094Z,101698.23
